Time;durP1;ratioP1;P1;durP2;ratioP2;P2;SDS_P1;SDS_P2;PMS_P1;PMS_P2;Temp;Humidity;BMP_temperature;BMP_pressure;BME280_temperature;BME280_humidity;BME280_pressure;Samples;Min_cycle;Max_cycle;Signal;HPM_P1;HPM_P2
2021/06/30 00:02:01;;;;;;;4.85;3.35;;;;;;;20.15;93.85;93129.88;5050793;28;20087;-84
2021/06/30 00:04:28;;;;;;;3.90;2.67;;;;;;;20.14;94.63;93130.94;5050483;28;20103;-83
2021/06/30 00:06:56;;;;;;;5.15;3.22;;;;;;;20.03;94.58;93114.59;5050906;28;20134;-83
2021/06/30 00:09:23;;;;;;;4.72;3.53;;;;;;;20.09;94.72;93130.19;5050532;28;20481;-83
2021/06/30 00:11:50;;;;;;;4.90;3.33;;;;;;;19.99;94.76;93120.59;5053672;28;20451;-84
2021/06/30 00:14:17;;;;;;;3.97;2.55;;;;;;;20.01;95.32;93137.53;5054665;28;20485;-84
2021/06/30 00:16:44;;;;;;;3.75;3.30;;;;;;;19.98;95.61;93142.50;5054493;28;20057;-83
2021/06/30 00:19:12;;;;;;;4.25;2.88;;;;;;;19.93;95.02;93143.28;5045774;28;20527;-84
2021/06/30 00:21:39;;;;;;;5.13;4.03;;;;;;;19.87;95.60;93141.75;5034823;28;20492;-83
2021/06/30 00:24:08;;;;;;;4.57;3.15;;;;;;;19.86;95.17;93135.00;5034553;28;20045;-84
2021/06/30 00:26:36;;;;;;;4.88;3.15;;;;;;;19.80;96.35;93136.06;5034475;28;20049;-84
2021/06/30 00:29:03;;;;;;;5.57;3.13;;;;;;;19.47;98.90;93105.22;5034518;28;20505;-84
2021/06/30 00:31:30;;;;;;;6.82;3.40;;;;;;;19.66;99.06;93141.09;5034221;28;20052;-85
2021/06/30 00:34:01;;;;;;;8.52;3.92;;;;;;;19.68;97.76;93147.59;5034574;28;20104;-84
2021/06/30 00:36:28;;;;;;;5.63;3.50;;;;;;;19.70;97.61;93148.09;5034365;28;20527;-83
2021/06/30 00:38:55;;;;;;;5.07;3.40;;;;;;;19.72;97.23;93150.44;5034477;28;20042;-84
2021/06/30 00:41:23;;;;;;;6.82;3.78;;;;;;;19.72;99.39;93151.19;5034346;28;20053;-84
2021/06/30 00:43:50;;;;;;;6.15;2.58;;;;;;;19.65;99.93;93137.69;5034149;28;20099;-83
2021/06/30 00:46:24;;;;;;;7.65;4.45;;;;;;;19.60;100.00;93143.72;5034516;28;20053;-84
2021/06/30 00:48:51;;;;;;;4.07;3.13;;;;;;;19.65;100.00;93152.53;5034093;28;20052;-83
2021/06/30 00:51:18;;;;;;;6.65;3.50;;;;;;;19.66;100.00;93154.88;5034157;28;20053;-83
2021/06/30 00:53:45;;;;;;;8.25;4.03;;;;;;;19.72;97.87;93158.25;5034055;28;20060;-84
2021/06/30 00:56:12;;;;;;;3.70;2.75;;;;;;;19.72;98.66;93156.41;5034027;28;20059;-83
2021/06/30 00:58:41;;;;;;;5.57;3.10;;;;;;;19.65;98.14;93145.50;5033991;28;20049;-83
2021/06/30 01:01:08;;;;;;;5.70;3.60;;;;;;;19.73;97.48;93152.75;5034236;28;20107;-83
2021/06/30 01:03:35;;;;;;;6.40;3.95;;;;;;;19.74;97.22;93154.34;5034319;28;20053;-83
2021/06/30 01:06:02;;;;;;;6.80;3.58;;;;;;;19.71;97.77;93159.28;5034031;28;20045;-84
2021/06/30 01:08:29;;;;;;;6.00;3.35;;;;;;;19.67;97.65;93163.50;5033818;28;20057;-83
2021/06/30 01:10:56;;;;;;;6.35;4.00;;;;;;;19.63;97.27;93158.81;5033602;28;20049;-84
2021/06/30 01:13:23;;;;;;;7.00;3.83;;;;;;;19.62;97.80;93156.47;5033806;28;20053;-83
2021/06/30 01:15:55;;;;;;;4.68;3.08;;;;;;;19.62;96.83;93152.03;5033786;28;20091;-83
2021/06/30 01:18:23;;;;;;;4.03;3.17;;;;;;;19.59;97.45;93155.16;5035742;28;20077;-83
2021/06/30 01:20:50;;;;;;;4.78;2.65;;;;;;;19.54;97.17;93141.41;5053400;28;20064;-83
2021/06/30 01:23:19;;;;;;;4.53;3.83;;;;;;;19.56;97.21;93147.09;5053715;28;20374;-83
2021/06/30 01:25:46;;;;;;;5.38;3.78;;;;;;;19.56;97.56;93144.50;5053206;28;20457;-84
2021/06/30 01:28:14;;;;;;;2.67;2.00;;;;;;;19.56;97.75;93145.28;5053091;28;20049;-83
2021/06/30 01:30:41;;;;;;;5.53;3.75;;;;;;;19.41;98.03;93127.91;5052741;28;20538;-84
2021/06/30 01:33:08;;;;;;;5.95;3.42;;;;;;;19.34;98.23;93119.56;5052934;28;20060;-83
2021/06/30 01:35:35;;;;;;;4.78;3.15;;;;;;;19.45;98.09;93143.78;5053300;28;20543;-83
2021/06/30 01:38:03;;;;;;;14.95;3.90;;;;;;;19.43;98.40;93140.63;5052784;28;20428;-83
2021/06/30 01:40:32;;;;;;;4.45;3.83;;;;;;;19.43;98.75;93140.63;5049042;28;20407;-83
2021/06/30 01:43:00;;;;;;;3.78;3.03;;;;;;;19.42;99.44;93146.91;5041189;28;20041;-83
2021/06/30 01:45:28;;;;;;;7.57;4.10;;;;;;;19.36;100.00;93146.91;5041666;28;20048;-84
2021/06/30 01:47:55;;;;;;;6.43;3.50;;;;;;;19.38;99.85;93151.88;5044784;28;20045;-83
2021/06/30 01:50:21;;;;;;;3.60;2.40;;;;;;;19.36;100.00;93143.56;5041846;28;20054;-83
2021/06/30 01:52:49;;;;;;;5.43;3.38;;;;;;;19.36;100.00;93140.94;5041771;28;20440;-84
2021/06/30 01:55:16;;;;;;;5.53;3.92;;;;;;;19.31;100.00;93148.78;5043617;28;20049;-83
2021/06/30 01:57:46;;;;;;;3.13;2.47;;;;;;;19.31;100.00;93133.16;5041920;28;20045;-83
2021/06/30 02:00:16;;;;;;;4.50;2.92;;;;;;;19.38;100.00;93140.69;5041200;28;20046;-84
2021/06/30 02:02:43;;;;;;;4.45;2.95;;;;;;;19.35;100.00;93140.16;5042779;28;20053;-83
2021/06/30 02:05:11;;;;;;;4.20;3.25;;;;;;;19.36;100.00;93143.56;5042598;28;20050;-84
2021/06/30 02:07:39;;;;;;;12.35;4.22;;;;;;;19.41;100.00;93140.13;5041303;28;20045;-83
2021/06/30 02:10:08;;;;;;;3.38;2.72;;;;;;;19.34;100.00;93138.59;5041952;28;20045;-83
2021/06/30 02:12:35;;;;;;;5.25;3.97;;;;;;;19.23;100.00;93143.06;5043000;28;20056;-83
2021/06/30 02:15:05;;;;;;;4.22;2.80;;;;;;;19.09;100.00;93119.41;5041441;28;20042;-84
2021/06/30 02:17:32;;;;;;;3.78;2.97;;;;;;;19.31;100.00;93141.72;5040972;28;20055;-83
2021/06/30 02:19:59;;;;;;;5.10;3.30;;;;;;;19.21;100.00;93142.53;5040884;28;20048;-84
2021/06/30 02:22:26;;;;;;;2.97;2.47;;;;;;;19.25;100.00;93144.63;5041822;28;20527;-83
2021/06/30 02:24:55;;;;;;;5.22;2.47;;;;;;;19.26;100.00;93141.78;5042926;28;20053;-83
2021/06/30 02:27:41;;;;;;;4.22;3.33;;;;;;;19.28;100.00;93144.88;5041388;28;20433;-83
2021/06/30 02:30:13;;;;;;;7.90;2.80;;;;;;;19.16;100.00;93133.97;5041967;28;20049;-84
2021/06/30 02:32:41;;;;;;;4.85;3.20;;;;;;;19.21;100.00;93139.19;5040441;28;20441;-83
2021/06/30 02:35:11;;;;;;;4.95;2.45;;;;;;;19.22;100.00;93143.34;5040914;28;20045;-84
2021/06/30 02:37:38;;;;;;;5.95;4.15;;;;;;;19.25;100.00;93152.44;5042581;28;20049;-84
2021/06/30 02:40:07;;;;;;;5.93;4.28;;;;;;;19.20;100.00;93154.00;5041553;28;20142;-84
2021/06/30 02:42:34;;;;;;;5.03;3.10;;;;;;;19.18;100.00;93157.91;5040251;28;20049;-84
2021/06/30 02:45:00;;;;;;;4.30;3.05;;;;;;;19.17;100.00;93156.38;5048981;28;20094;-83
2021/06/30 02:47:29;;;;;;;6.20;3.35;;;;;;;19.20;100.00;93159.22;5052279;28;20390;-84
2021/06/30 02:49:55;;;;;;;6.55;3.60;;;;;;;19.17;100.00;93162.34;5051836;28;20053;-84
2021/06/30 02:52:22;;;;;;;7.18;4.25;;;;;;;19.22;100.00;93162.31;5051825;28;20052;-84
2021/06/30 02:54:50;;;;;;;4.60;3.20;;;;;;;19.12;100.00;93159.75;5051707;28;20408;-83
2021/06/30 02:57:17;;;;;;;5.78;4.05;;;;;;;19.09;100.00;93157.69;5051535;28;20386;-84
2021/06/30 02:59:43;;;;;;;5.40;3.35;;;;;;;19.07;100.00;93150.13;5051805;28;20122;-83
2021/06/30 03:02:10;;;;;;;7.95;4.32;;;;;;;19.17;100.00;93164.94;5051560;28;20048;-84
2021/06/30 03:04:38;;;;;;;5.35;2.95;;;;;;;19.28;100.00;93170.13;5051987;28;20045;-83
2021/06/30 03:07:05;;;;;;;6.32;3.53;;;;;;;19.27;100.00;93164.16;5051473;28;20049;-84
2021/06/30 03:09:32;;;;;;;4.65;3.42;;;;;;;19.37;100.00;93178.97;5051497;28;20049;-83
2021/06/30 03:11:59;;;;;;;4.38;2.65;;;;;;;19.31;100.00;93159.19;5051751;28;20044;-84
2021/06/30 03:14:26;;;;;;;5.00;3.70;;;;;;;19.46;100.00;93176.59;5051355;28;20053;-83
2021/06/30 03:16:52;;;;;;;4.78;3.25;;;;;;;19.53;100.00;93177.06;5051285;28;20507;-84
2021/06/30 03:19:19;;;;;;;4.97;3.63;;;;;;;19.58;100.00;93179.66;5051457;28;20115;-83
2021/06/30 03:21:48;;;;;;;6.93;3.63;;;;;;;19.64;100.00;93175.22;5051409;28;20045;-84
2021/06/30 03:24:15;;;;;;;4.82;3.20;;;;;;;19.68;100.00;93165.84;5051072;28;20475;-84
2021/06/30 03:26:42;;;;;;;7.05;4.00;;;;;;;19.71;100.00;93173.09;5051265;28;20102;-84
2021/06/30 03:29:09;;;;;;;5.75;4.00;;;;;;;19.66;100.00;93164.53;5051261;28;20060;-83
2021/06/30 03:31:36;;;;;;;4.28;3.80;;;;;;;19.72;100.00;93174.66;5050987;28;20451;-83
2021/06/30 03:34:04;;;;;;;7.18;4.25;;;;;;;19.70;100.00;93168.94;5051230;28;20045;-83
2021/06/30 03:36:31;;;;;;;11.27;4.20;;;;;;;19.82;100.00;93192.09;5050979;28;20045;-83
2021/06/30 03:38:59;;;;;;;10.18;4.18;;;;;;;19.82;100.00;93183.50;5050942;28;20052;-84
2021/06/30 03:41:26;;;;;;;7.03;4.13;;;;;;;19.82;100.00;93178.28;5050876;28;20048;-84
2021/06/30 03:43:53;;;;;;;6.90;4.03;;;;;;;19.88;100.00;93182.41;5051088;28;20045;-84
2021/06/30 03:46:20;;;;;;;3.80;3.25;;;;;;;19.90;100.00;93177.69;5050828;28;20051;-84
2021/06/30 03:48:46;;;;;;;4.00;2.97;;;;;;;19.98;100.00;93184.22;5050861;28;20095;-84
2021/06/30 03:51:13;;;;;;;5.57;3.88;;;;;;;20.03;100.00;93184.97;5050784;28;20056;-84
2021/06/30 03:53:40;;;;;;;5.28;3.10;;;;;;;20.08;100.00;93191.22;5050671;28;20102;-85
2021/06/30 03:56:08;;;;;;;6.13;4.55;;;;;;;20.15;100.00;93187.25;5050745;28;20045;-84
2021/06/30 03:58:35;;;;;;;7.05;3.58;;;;;;;20.20;100.00;93199.50;5051075;28;20045;-83
2021/06/30 04:01:02;;;;;;;6.32;3.78;;;;;;;20.27;100.00;93204.41;5050709;28;20087;-84
2021/06/30 04:03:29;;;;;;;4.18;3.67;;;;;;;20.36;100.00;93199.41;5050712;28;20580;-83
2021/06/30 04:05:57;;;;;;;7.97;4.68;;;;;;;20.44;99.82;93196.19;5050485;28;20053;-85
2021/06/30 04:08:24;;;;;;;3.60;2.97;;;;;;;20.56;100.00;93201.84;5050592;28;20048;-84
2021/06/30 04:10:51;;;;;;;4.53;3.78;;;;;;;20.65;99.85;93206.50;5050713;28;20053;-83
2021/06/30 04:13:19;;;;;;;5.32;4.05;;;;;;;20.67;99.84;93193.94;5050766;28;20106;-84
2021/06/30 04:15:46;;;;;;;4.82;3.58;;;;;;;20.74;99.69;93196.25;5050546;28;20052;-83
2021/06/30 04:18:13;;;;;;;9.60;4.10;;;;;;;20.74;100.00;93191.78;5050573;28;20048;-83
2021/06/30 04:20:42;;;;;;;6.13;4.53;;;;;;;20.83;98.51;93199.84;5050390;28;20052;-84
2021/06/30 04:23:09;;;;;;;9.50;3.75;;;;;;;20.90;98.83;93197.72;5050924;28;20041;-84
2021/06/30 04:25:36;;;;;;;6.05;3.30;;;;;;;21.00;97.87;93194.22;5050508;28;20291;-83
2021/06/30 04:28:03;;;;;;;4.72;2.63;;;;;;;21.00;97.15;93183.78;5050988;28;20048;-84
2021/06/30 04:30:32;;;;;;;6.20;3.75;;;;;;;21.16;97.45;93194.09;5050572;28;20431;-83
2021/06/30 04:32:59;;;;;;;4.57;2.70;;;;;;;21.25;96.57;93189.84;5050201;28;20057;-83
2021/06/30 04:35:26;;;;;;;3.83;2.88;;;;;;;21.37;95.61;93197.28;5050312;28;20373;-84
2021/06/30 04:37:53;;;;;;;5.13;3.28;;;;;;;21.49;95.43;93191.66;5050633;28;20044;-84
2021/06/30 04:40:19;;;;;;;4.53;2.78;;;;;;;21.55;95.91;93184.53;5050348;28;20059;-84
2021/06/30 04:42:46;;;;;;;7.38;3.92;;;;;;;21.73;98.29;93196.91;5050394;28;20045;-84
2021/06/30 04:45:13;;;;;;;5.10;2.90;;;;;;;21.85;97.82;93191.25;5050750;28;20485;-84
2021/06/30 04:47:41;;;;;;;4.63;3.13;;;;;;;21.98;100.00;93175.97;5050182;28;20045;-84
2021/06/30 04:50:09;;;;;;;4.63;3.80;;;;;;;22.10;99.74;93175.53;5050408;28;20048;-83
2021/06/30 04:52:36;;;;;;;4.75;3.72;;;;;;;22.26;97.89;93183.97;5050368;28;20049;-84
2021/06/30 04:55:03;;;;;;;5.38;2.42;;;;;;;22.36;99.33;93183.03;5050327;28;20053;-85
2021/06/30 04:57:30;;;;;;;4.25;3.05;;;;;;;22.46;95.86;93177.66;5052602;28;20045;-85
2021/06/30 04:59:57;;;;;;;4.28;3.20;;;;;;;22.59;95.21;93185.84;5053863;28;20048;-84
2021/06/30 05:02:24;;;;;;;12.57;4.07;;;;;;;22.67;94.76;93179.97;5053781;28;20497;-84
2021/06/30 05:04:52;;;;;;;4.63;3.03;;;;;;;22.85;96.23;93190.69;5053828;28;20484;-83
2021/06/30 05:07:19;;;;;;;8.95;4.13;;;;;;;22.96;96.25;93187.59;5053934;28;20538;-83
2021/06/30 05:09:46;;;;;;;3.45;2.72;;;;;;;23.11;94.86;93188.41;5053924;28;20049;-83
2021/06/30 05:12:13;;;;;;;7.00;3.05;;;;;;;23.13;95.20;93177.66;5053821;28;20416;-83
2021/06/30 05:14:40;;;;;;;4.60;2.90;;;;;;;23.31;94.20;93194.34;5053442;28;20098;-83
2021/06/30 05:17:06;;;;;;;4.75;3.03;;;;;;;23.35;93.80;93187.50;5053566;28;20416;-84
2021/06/30 05:19:33;;;;;;;3.38;1.92;;;;;;;23.53;94.17;93204.22;5050340;28;20058;-83
2021/06/30 05:22:02;;;;;;;5.47;3.58;;;;;;;23.61;93.83;93195.66;5053684;28;20052;-84
2021/06/30 05:24:28;;;;;;;6.05;2.80;;;;;;;23.72;92.39;93196.25;5053630;28;20615;-83
2021/06/30 05:26:55;;;;;;;4.32;3.08;;;;;;;23.77;92.46;93184.88;5053311;28;20048;-85
2021/06/30 05:29:22;;;;;;;4.50;3.35;;;;;;;23.88;92.98;93185.44;5053235;28;20526;-84
2021/06/30 05:31:49;;;;;;;5.18;3.00;;;;;;;24.11;91.59;93194.16;5053506;28;20045;-84
2021/06/30 05:34:16;;;;;;;4.53;3.15;;;;;;;24.24;91.20;93192.59;5053191;28;20055;-83
2021/06/30 05:36:48;;;;;;;12.68;3.78;;;;;;;24.33;89.10;93184.00;5053171;28;20041;-84
2021/06/30 05:39:16;;;;;;;10.65;4.43;;;;;;;24.53;88.24;93191.41;5053208;28;20135;-84
2021/06/30 05:41:43;;;;;;;4.88;3.17;;;;;;;24.62;85.76;93194.09;5053125;28;20072;-83
2021/06/30 05:44:11;;;;;;;5.18;3.20;;;;;;;24.69;84.92;93189.22;5052921;28;20056;-83
2021/06/30 05:46:38;;;;;;;4.63;2.45;;;;;;;24.84;83.57;93186.56;5053029;28;20136;-84
2021/06/30 05:49:05;;;;;;;3.40;2.50;;;;;;;25.00;82.48;93190.38;5053141;28;20102;-90
2021/06/30 05:51:32;;;;;;;4.47;2.83;;;;;;;25.11;81.99;93184.84;5053079;28;20413;-84
2021/06/30 05:53:59;;;;;;;5.82;2.97;;;;;;;25.25;80.76;93193.41;5052896;28;20110;-83
2021/06/30 05:56:27;;;;;;;4.18;2.97;;;;;;;25.43;79.07;93191.66;5052753;28;20045;-87
2021/06/30 05:58:54;;;;;;;6.20;2.78;;;;;;;25.56;78.38;93195.28;5052769;28;20045;-84
2021/06/30 06:01:21;;;;;;;3.63;2.40;;;;;;;25.83;77.35;93179.56;5052675;28;20048;-85
2021/06/30 06:03:48;;;;;;;4.05;2.45;;;;;;;25.91;76.29;93181.44;5052743;28;20055;-83
2021/06/30 06:06:15;;;;;;;6.43;2.92;;;;;;;26.05;75.38;93191.81;5052783;28;20095;-86
2021/06/30 06:08:43;;;;;;;4.35;2.92;;;;;;;26.06;75.37;93188.09;5051394;28;20049;-85
2021/06/30 06:11:12;;;;;;;7.00;2.58;;;;;;;26.32;74.39;93199.75;5052548;28;20057;-84
2021/06/30 06:13:41;;;;;;;5.38;2.72;;;;;;;26.48;73.89;93194.84;5052624;28;20053;-82
2021/06/30 06:16:08;;;;;;;5.25;2.60;;;;;;;26.75;72.74;93192.97;5052598;28;20045;-83
2021/06/30 06:18:35;;;;;;;3.47;2.55;;;;;;;26.95;72.17;93188.91;5052544;28;20045;-84
2021/06/30 06:21:03;;;;;;;5.30;3.17;;;;;;;27.14;70.64;93187.78;5052525;28;20428;-84
2021/06/30 06:23:31;;;;;;;5.20;2.40;;;;;;;27.39;70.63;93194.06;5052768;28;20071;-83
2021/06/30 06:25:57;;;;;;;3.95;2.55;;;;;;;27.65;69.26;93190.56;5052206;28;20514;-84
2021/06/30 06:28:29;;;;;;;7.22;2.95;;;;;;;27.83;68.66;93199.19;5052787;28;20163;-82
2021/06/30 06:30:57;;;;;;;3.60;3.05;;;;;;;28.00;67.15;93174.53;5052395;28;20095;-86
2021/06/30 06:33:24;;;;;;;5.90;2.40;;;;;;;28.27;66.08;93190.22;5052441;28;20056;-83
2021/06/30 06:35:52;;;;;;;4.03;2.60;;;;;;;28.44;64.89;93194.59;5051972;28;20496;-84
2021/06/30 06:38:19;;;;;;;4.97;3.03;;;;;;;28.73;63.92;93194.84;5051986;28;20523;-84
2021/06/30 06:40:46;;;;;;;3.17;2.00;;;;;;;28.75;63.10;93198.69;5052172;28;20049;-83
2021/06/30 06:43:13;;;;;;;3.10;2.03;;;;;;;28.91;63.70;93185.66;5051954;28;20052;-87
2021/06/30 06:45:40;;;;;;;5.57;3.85;;;;;;;29.11;62.78;93183.28;5051928;28;20087;-83
2021/06/30 06:48:08;;;;;;;3.88;2.25;;;;;;;29.32;62.39;93193.78;5051772;28;20404;-83
2021/06/30 06:50:35;;;;;;;3.28;2.50;;;;;;;29.52;61.82;93188.00;5051720;28;20386;-83
2021/06/30 06:53:02;;;;;;;3.95;2.25;;;;;;;29.71;60.78;93182.91;5051647;28;20485;-84
2021/06/30 06:55:31;;;;;;;5.28;2.53;;;;;;;30.00;60.46;93183.00;5051738;28;20056;-84
2021/06/30 06:57:58;;;;;;;6.72;3.58;;;;;;;30.18;59.38;93180.91;5051274;28;20052;-84
2021/06/30 07:00:25;;;;;;;4.28;2.97;;;;;;;30.22;59.33;93176.47;5051715;28;20163;-83
2021/06/30 07:02:52;;;;;;;4.05;2.95;;;;;;;30.45;59.30;93181.25;5051690;28;20420;-84
2021/06/30 07:05:20;;;;;;;7.93;3.60;;;;;;;30.59;58.78;93166.88;5051458;28;20060;-85
2021/06/30 07:07:47;;;;;;;4.38;2.20;;;;;;;30.64;58.12;93174.56;5051718;28;20504;-83
2021/06/30 07:10:14;;;;;;;3.63;2.22;;;;;;;30.84;57.81;93158.81;5051562;28;20447;-83
2021/06/30 07:12:41;;;;;;;4.05;2.35;;;;;;;30.89;56.22;93164.66;5051483;28;20051;-84
2021/06/30 07:15:10;;;;;;;4.55;2.92;;;;;;;30.86;57.17;93165.31;5051290;28;20095;-84
2021/06/30 07:17:38;;;;;;;8.18;3.45;;;;;;;30.97;56.94;93175.44;5051324;28;20041;-83
2021/06/30 07:20:07;;;;;;;4.03;2.83;;;;;;;31.08;56.92;93165.88;5051333;28;20118;-86
2021/06/30 07:22:35;;;;;;;3.58;2.65;;;;;;;31.24;56.49;93162.47;5051410;28;20049;-85
2021/06/30 07:25:02;;;;;;;10.30;2.80;;;;;;;31.25;55.68;93148.06;5051146;28;20041;-85
2021/06/30 07:27:29;;;;;;;6.00;2.40;;;;;;;31.52;55.64;93159.72;5051200;28;20543;-88
2021/06/30 07:29:56;;;;;;;4.95;2.75;;;;;;;31.57;55.45;93154.16;5051178;28;20421;-86
2021/06/30 07:32:23;;;;;;;3.00;2.35;;;;;;;31.56;55.17;93160.56;5051071;28;20057;-85
2021/06/30 07:34:49;;;;;;;6.25;2.83;;;;;;;31.55;54.71;93150.28;5051110;28;20079;-83
2021/06/30 07:37:16;;;;;;;3.60;2.50;;;;;;;31.52;55.45;93162.38;5051173;28;20098;-84
2021/06/30 07:39:44;;;;;;;2.45;1.80;;;;;;;31.65;55.08;93157.00;5051041;28;20052;-84
2021/06/30 07:42:11;;;;;;;3.10;2.33;;;;;;;31.82;54.69;93158.47;5050888;28;20501;-84
2021/06/30 07:44:38;;;;;;;3.08;2.20;;;;;;;31.78;54.26;93145.13;5050909;28;20455;-85
2021/06/30 07:47:06;;;;;;;2.85;1.80;;;;;;;31.78;54.38;93136.38;5051096;28;20413;-84
2021/06/30 07:49:33;;;;;;;4.60;2.90;;;;;;;32.02;54.34;93146.03;5050908;28;20423;-84
2021/06/30 07:52:00;;;;;;;5.28;2.58;;;;;;;31.99;54.06;93144.09;5034183;28;20115;-84
2021/06/30 07:54:27;;;;;;;5.20;2.42;;;;;;;32.09;53.43;93142.75;5030865;28;20072;-84
2021/06/30 07:56:55;;;;;;;3.90;2.08;;;;;;;32.21;53.49;93142.63;5030795;28;20053;-86
2021/06/30 07:59:21;;;;;;;6.63;2.58;;;;;;;32.29;53.43;93132.91;5030697;28;20045;-85
2021/06/30 08:01:48;;;;;;;4.07;2.75;;;;;;;32.37;52.23;93137.25;5031305;28;20065;-87
2021/06/30 08:04:15;;;;;;;4.95;2.28;;;;;;;32.44;52.78;93133.97;5030794;28;20045;-86
2021/06/30 08:06:42;;;;;;;3.97;2.25;;;;;;;32.70;51.98;93142.41;5030733;28;20486;-84
2021/06/30 08:09:09;;;;;;;4.20;2.75;;;;;;;32.83;51.56;93138.50;5030727;28;20045;-85
2021/06/30 08:11:35;;;;;;;11.15;3.90;;;;;;;32.87;51.02;93138.56;5030596;28;20057;-85
2021/06/30 08:14:04;;;;;;;5.00;2.30;;;;;;;32.89;51.08;93141.63;5030496;28;20049;-85
2021/06/30 08:16:31;;;;;;;2.45;1.77;;;;;;;32.95;50.49;93134.13;5030903;28;20061;-84
2021/06/30 08:18:57;;;;;;;3.25;1.95;;;;;;;33.12;51.24;93140.88;5030997;28;20049;-83
2021/06/30 08:21:24;;;;;;;3.38;2.72;;;;;;;33.08;50.21;93140.81;5030770;28;20056;-85
2021/06/30 08:23:51;;;;;;;7.20;3.33;;;;;;;33.23;50.65;93133.84;5030903;28;20095;-90
2021/06/30 08:26:18;;;;;;;3.85;2.03;;;;;;;33.25;49.70;93136.94;5030710;28;20057;-85
2021/06/30 08:28:45;;;;;;;8.10;3.88;;;;;;;33.22;50.19;93137.63;5030433;28;20046;-87
2021/06/30 08:31:14;;;;;;;3.70;2.53;;;;;;;33.26;49.58;93117.16;5030979;28;20075;-84
2021/06/30 08:33:41;;;;;;;3.67;2.40;;;;;;;33.40;49.23;93129.16;5034686;28;20083;-85
2021/06/30 08:36:08;;;;;;;3.33;2.15;;;;;;;33.23;48.59;93111.78;5034455;28;20060;-84
2021/06/30 08:38:35;;;;;;;4.32;2.03;;;;;;;33.40;49.41;93127.28;5034461;28;20548;-83
2021/06/30 08:41:03;;;;;;;7.07;2.67;;;;;;;33.57;48.55;93122.59;5034204;28;20509;-85
2021/06/30 08:43:30;;;;;;;3.22;2.25;;;;;;;33.75;46.49;93124.72;5034352;28;20056;-84
2021/06/30 08:45:57;;;;;;;3.35;2.58;;;;;;;34.01;48.13;93121.25;5034230;28;20049;-84
2021/06/30 08:48:29;;;;;;;6.57;2.42;;;;;;;34.22;46.80;93136.81;5034235;28;20405;-85
2021/06/30 08:50:58;;;;;;;3.63;2.15;;;;;;;34.09;46.09;93130.94;5034231;28;20564;-83
2021/06/30 08:53:25;;;;;;;4.75;2.95;;;;;;;34.09;46.44;93128.25;5034058;28;20524;-85
2021/06/30 08:55:52;;;;;;;4.00;2.83;;;;;;;34.20;46.06;93114.31;5034433;28;20049;-84
2021/06/30 08:58:20;;;;;;;3.00;2.10;;;;;;;34.24;45.34;93117.75;5034132;28;20054;-87
2021/06/30 09:00:48;;;;;;;10.15;2.70;;;;;;;34.34;45.34;93116.38;5034147;28;20056;-85
2021/06/30 09:03:17;;;;;;;6.38;2.50;;;;;;;34.46;45.34;93118.00;5033959;28;20050;-83
2021/06/30 09:09:01;;;;;;;2.70;2.30;;;;;;;34.67;45.37;93116.72;5033886;28;20064;-84
2021/06/30 09:11:30;;;;;;;3.42;1.83;;;;;;;34.76;44.58;93117.22;5033836;28;20486;-84
2021/06/30 09:14:18;;;;;;;7.10;3.55;;;;;;;35.06;44.56;93113.66;5033816;28;20054;-84
2021/06/30 09:16:58;;;;;;;5.20;2.83;;;;;;;35.06;43.63;93108.31;5033908;28;20046;-85
2021/06/30 09:19:47;;;;;;;3.53;2.28;;;;;;;35.15;43.69;93111.47;5033839;28;20049;-84
2021/06/30 09:22:15;;;;;;;5.40;2.80;;;;;;;35.15;43.34;93106.13;5038516;28;20049;-84
2021/06/30 09:24:43;;;;;;;4.50;2.20;;;;;;;35.28;43.14;93101.28;5053391;28;20056;-85
2021/06/30 09:27:10;;;;;;;6.75;2.65;;;;;;;35.48;43.34;93102.94;5053644;28;20052;-86
2021/06/30 09:29:38;;;;;;;4.28;1.90;;;;;;;35.59;42.37;93103.78;5053620;28;20099;-87
2021/06/30 09:32:10;;;;;;;2.95;1.88;;;;;;;35.55;42.10;93102.97;5053562;28;20103;-87
2021/06/30 09:34:37;;;;;;;4.28;1.98;;;;;;;35.20;41.82;93077.56;5053373;28;20052;-86
2021/06/30 09:37:05;;;;;;;5.15;2.38;;;;;;;35.10;42.91;93090.47;5053285;28;20095;-90
2021/06/30 09:39:37;;;;;;;2.78;2.05;;;;;;;35.13;43.30;93092.38;5053397;28;20048;-84
2021/06/30 09:42:06;;;;;;;8.95;2.05;;;;;;;35.08;43.11;93082.00;5053113;28;20048;-86
2021/06/30 09:44:33;;;;;;;3.95;2.00;;;;;;;35.26;43.58;93078.75;5053282;28;20047;-85
2021/06/30 09:47:00;;;;;;;5.88;2.67;;;;;;;35.27;42.34;93074.94;5038261;28;20046;-88
2021/06/30 09:49:27;;;;;;;4.40;2.53;;;;;;;35.36;42.48;93069.28;5033183;28;20045;-87
2021/06/30 09:52:09;;;;;;;4.57;2.35;;;;;;;35.44;42.63;93068.19;5033071;28;20056;-84
2021/06/30 09:54:39;;;;;;;2.60;1.90;;;;;;;35.57;42.50;93057.97;5033127;28;20065;-84
2021/06/30 09:57:07;;;;;;;2.95;1.83;;;;;;;35.47;41.66;93059.44;5033098;28;20041;-85
2021/06/30 09:59:37;;;;;;;4.38;1.83;;;;;;;35.60;40.97;93051.88;5032969;28;20477;-84
2021/06/30 10:02:07;;;;;;;13.15;2.22;;;;;;;35.50;41.41;93045.34;5032856;28;20053;-84
2021/06/30 10:04:35;;;;;;;3.92;2.25;;;;;;;35.66;41.74;93046.97;5032725;28;20042;-85
2021/06/30 10:07:05;;;;;;;4.55;2.80;;;;;;;35.55;41.18;93039.63;5033099;28;20137;-85
2021/06/30 10:09:32;;;;;;;6.35;2.80;;;;;;;35.68;40.29;93048.13;5033261;28;20076;-91
2021/06/30 10:12:04;;;;;;;2.58;1.70;;;;;;;35.78;41.18;93054.69;5032801;28;20057;-85
2021/06/30 10:14:32;;;;;;;5.00;2.17;;;;;;;35.77;40.65;93050.44;5032703;28;20053;-84
2021/06/30 10:17:01;;;;;;;3.80;2.35;;;;;;;35.93;40.24;93038.69;5032546;28;20410;-84
2021/06/30 10:19:29;;;;;;;5.88;3.15;;;;;;;36.14;40.84;93042.59;5041508;28;20048;-86
2021/06/30 10:21:56;;;;;;;3.85;2.00;;;;;;;36.07;38.80;93044.09;5041258;28;20098;-84
2021/06/30 10:24:23;;;;;;;9.93;3.75;;;;;;;36.00;39.60;93029.94;5040966;28;20049;-84
2021/06/30 10:26:51;;;;;;;3.03;1.65;;;;;;;36.28;37.78;93039.97;5041605;28;20049;-84
2021/06/30 10:29:24;;;;;;;4.28;1.95;;;;;;;36.53;38.69;93030.44;5040511;28;20116;-86
2021/06/30 10:31:51;;;;;;;2.40;1.60;;;;;;;36.21;39.17;93035.38;5042656;28;20045;-86
2021/06/30 10:34:19;;;;;;;5.25;2.22;;;;;;;36.41;38.48;93016.31;5040756;28;20044;-86
2021/06/30 10:36:52;;;;;;;3.15;2.17;;;;;;;36.48;37.72;93020.91;5039373;28;20079;-88
2021/06/30 10:39:20;;;;;;;2.50;1.60;;;;;;;36.63;37.39;93033.19;5041689;28;20049;-84
2021/06/30 10:41:54;;;;;;;4.50;2.17;;;;;;;36.80;36.43;93027.44;5036562;28;20053;-90
2021/06/30 10:44:24;;;;;;;3.70;2.17;;;;;;;36.83;36.48;93032.81;5032493;28;20110;-86
2021/06/30 10:46:53;;;;;;;7.43;2.08;;;;;;;37.00;35.70;93017.13;5030208;28;20410;-86
2021/06/30 10:49:28;;;;;;;7.75;2.75;;;;;;;36.98;34.02;93025.53;5031978;28;20052;-87
2021/06/30 10:51:57;;;;;;;4.13;1.25;;;;;;;36.96;33.64;93017.13;5032010;28;20096;-84
2021/06/30 10:54:43;;;;;;;3.58;1.35;;;;;;;37.14;33.73;93024.41;5030846;28;20056;-86
2021/06/30 10:57:30;;;;;;;2.33;1.27;;;;;;;37.35;34.73;93017.47;5031989;28;20132;-85
2021/06/30 11:00:21;;;;;;;3.08;1.70;;;;;;;37.14;34.54;92992.28;5031925;28;20048;-85
2021/06/30 11:03:22;;;;;;;2.80;1.40;;;;;;;37.35;33.97;93018.25;5046519;28;20499;-95
2021/06/30 11:05:49;;;;;;;2.42;1.55;;;;;;;37.38;33.41;93008.69;5037291;28;20098;-89
2021/06/30 11:08:44;;;;;;;3.30;1.55;;;;;;;37.40;32.77;93007.13;5051617;28;20045;-85
2021/06/30 11:11:12;;;;;;;3.65;1.52;;;;;;;37.61;32.39;93008.25;5051763;28;20132;-89
2021/06/30 11:14:00;;;;;;;2.25;1.58;;;;;;;37.50;32.53;93002.13;5051419;28;20045;-86
2021/06/30 11:16:51;;;;;;;4.78;1.85;;;;;;;37.63;33.14;92989.09;5031458;28;20141;-86
2021/06/30 11:19:43;;;;;;;1.35;0.63;;;;;;;37.64;32.05;92987.94;5038220;28;20045;-88
2021/06/30 11:22:29;;;;;;;1.60;1.02;;;;;;;37.62;30.66;92990.28;5051456;28;20056;-85
2021/06/30 11:24:57;;;;;;;2.28;1.20;;;;;;;37.62;28.86;92980.28;5051219;28;20409;-84
2021/06/30 11:27:46;;;;;;;2.97;1.35;;;;;;;37.57;29.06;92976.09;5051158;28;20142;-84
2021/06/30 11:30:29;;;;;;;2.22;0.98;;;;;;;37.72;27.91;92973.38;5051462;28;20052;-85
2021/06/30 11:32:57;;;;;;;2.53;1.35;;;;;;;37.54;28.39;92968.06;5051232;28;20049;-82
2021/06/30 11:35:31;;;;;;;2.03;1.35;;;;;;;37.57;28.08;92961.91;5051121;28;20049;-85
2021/06/30 11:38:02;;;;;;;6.37;1.20;;;;;;;37.58;27.95;92960.78;5051040;28;20053;-83
2021/06/30 11:40:33;;;;;;;5.38;1.60;;;;;;;37.83;27.47;92960.69;5050937;28;20304;-86
2021/06/30 11:43:01;;;;;;;3.25;1.10;;;;;;;37.98;25.46;92955.25;5051188;28;20065;-85